Time;durP1;ratioP1;P1;durP2;ratioP2;P2;SDS_P1;SDS_P2;PMS_P1;PMS_P2;Temp;Humidity;BMP_temperature;BMP_pressure;BME280_temperature;BME280_humidity;BME280_pressure;Samples;Min_cycle;Max_cycle;Signal;HPM_P1;HPM_P2
2022/06/09 00:01:23;;;;;;;708.88;670.67;;;15.50;99.90;;;15.68;100.00;100250.03;5031138;28;20226;-63
2022/06/09 00:04:26;;;;;;;679.00;643.88;;;15.50;99.90;;;15.71;100.00;100241.09;5036293;28;20210;-63
2022/06/09 00:06:59;;;;;;;672.30;637.03;;;15.60;99.90;;;15.70;100.00;100227.81;5014498;28;20232;-63
2022/06/09 00:09:33;;;;;;;672.80;638.40;;;15.60;99.90;;;15.70;100.00;100233.13;5046520;28;20221;-63
2022/06/09 00:12:01;;;;;;;693.03;655.60;;;15.60;99.90;;;15.70;100.00;100219.81;5017963;28;20225;-63
2022/06/09 00:14:29;;;;;;;690.30;653.85;;;15.60;99.90;;;15.67;100.00;100231.41;5016913;28;20209;-62
2022/06/09 00:16:57;;;;;;;706.45;668.03;;;15.60;99.90;;;15.61;100.00;100227.03;5016079;28;20198;-63
2022/06/09 00:19:25;;;;;;;695.53;658.42;;;15.60;99.90;;;15.61;100.00;100234.16;5018093;28;20594;-63
2022/06/09 00:21:53;;;;;;;670.97;636.80;;;15.50;99.90;;;15.59;100.00;100238.59;5032619;28;20238;-63
2022/06/09 00:24:22;;;;;;;676.92;642.08;;;15.50;99.90;;;15.57;100.00;100237.69;5013493;28;20210;-63
2022/06/09 00:26:50;;;;;;;681.22;645.97;;;15.50;99.90;;;15.56;100.00;100230.59;5043917;28;20209;-63
2022/06/09 00:29:18;;;;;;;676.10;641.03;;;15.50;99.90;;;15.55;100.00;100232.41;5015178;28;20210;-62
2022/06/09 00:31:46;;;;;;;666.90;632.78;;;15.50;99.90;;;15.53;100.00;100234.19;5033832;28;20230;-63
2022/06/09 00:34:13;;;;;;;675.05;639.85;;;15.50;99.90;;;15.51;100.00;100230.69;5009025;28;20202;-63
2022/06/09 00:36:41;;;;;;;674.83;639.92;;;15.50;99.90;;;15.51;100.00;100237.78;5043163;28;20202;-63
2022/06/09 00:39:09;;;;;;;692.53;656.10;;;15.40;99.90;;;15.48;100.00;100230.72;5059645;28;20207;-62
2022/06/09 00:41:41;;;;;;;681.85;646.55;;;15.40;99.90;;;15.45;100.00;100236.09;5008381;28;20236;-63
2022/06/09 00:44:25;;;;;;;710.13;669.85;;;15.40;99.90;;;15.44;100.00;100238.78;5000018;28;20570;-62
2022/06/09 00:47:08;;;;;;;660.15;626.28;;;15.40;99.90;;;15.36;100.00;100239.75;5034144;28;20206;-62
2022/06/09 00:49:57;;;;;;;676.47;641.47;;;15.40;99.90;;;15.34;100.00;100243.34;5031504;28;20245;-63
2022/06/09 00:52:29;;;;;;;672.08;636.88;;;15.40;99.90;;;15.26;100.00;100242.56;5034695;28;20223;-63
2022/06/09 00:55:02;;;;;;;681.90;645.70;;;15.30;99.90;;;15.24;100.00;100241.72;5032026;28;20198;-63
2022/06/09 00:57:39;;;;;;;689.97;653.42;;;15.30;99.90;;;15.13;100.00;100239.19;5026674;28;20693;-63
2022/06/09 01:00:17;;;;;;;682.88;646.72;;;15.20;99.90;;;15.16;100.00;100239.16;5017865;28;20204;-63
2022/06/09 01:02:45;;;;;;;678.83;642.67;;;15.20;99.90;;;15.14;100.00;100245.41;5030547;28;20209;-63
2022/06/09 01:05:18;;;;;;;676.17;639.85;;;15.20;99.90;;;15.13;100.00;100248.97;5031622;28;20218;-63
2022/06/09 01:07:51;;;;;;;679.03;642.92;;;15.20;99.90;;;15.11;100.00;100248.09;5031693;28;20213;-63
2022/06/09 01:10:19;;;;;;;669.88;634.17;;;15.10;99.90;;;15.07;100.00;100236.59;5006670;28;20679;-63
2022/06/09 01:12:48;;;;;;;663.08;628.08;;;15.10;99.90;;;15.08;100.00;100235.69;5004677;28;20658;-63
2022/06/09 01:15:46;;;;;;;682.00;645.13;;;15.10;99.90;;;15.01;100.00;100240.22;5048056;28;20647;-62
2022/06/09 01:18:45;;;;;;;676.55;640.38;;;15.10;99.90;;;14.97;100.00;100241.16;5032942;28;20201;-63
2022/06/09 01:21:51;;;;;;;673.72;636.97;;;15.00;99.90;;;14.91;100.00;100237.69;5011268;28;20232;-63
2022/06/09 01:24:57;;;;;;;663.40;627.78;;;15.00;99.90;;;14.85;100.00;100238.63;5004116;28;20689;-63
2022/06/09 01:28:11;;;;;;;654.13;619.20;;;14.90;99.90;;;14.85;100.00;100240.41;5033968;28;20217;-63
2022/06/09 01:30:59;;;;;;;663.15;627.40;;;14.90;99.90;;;14.84;100.00;100247.53;5009044;28;20230;-63
2022/06/09 01:33:49;;;;;;;654.45;619.90;;;14.90;99.90;;;14.80;100.00;100247.56;5011788;28;20215;-63
2022/06/09 01:36:26;;;;;;;644.42;610.90;;;14.90;99.90;;;14.76;100.00;100252.06;5015042;28;20202;-62
2022/06/09 01:38:57;;;;;;;656.47;621.55;;;14.80;99.90;;;14.78;100.00;100260.91;5014441;28;20205;-63
2022/06/09 01:41:25;;;;;;;644.75;610.83;;;14.80;99.90;;;14.73;100.00;100258.28;5044600;28;20237;-63
2022/06/09 01:43:55;;;;;;;659.97;625.33;;;14.80;99.90;;;14.78;100.00;100265.34;5027183;28;20210;-63
2022/06/09 01:46:34;;;;;;;662.88;627.70;;;14.80;99.90;;;14.77;100.00;100269.78;5004058;28;20675;-63
2022/06/09 01:49:12;;;;;;;665.35;629.45;;;14.80;99.90;;;14.76;100.00;100276.00;5010696;28;20209;-63
2022/06/09 01:51:44;;;;;;;656.25;620.80;;;14.80;99.90;;;14.80;100.00;100284.84;5023757;28;20422;-63
2022/06/09 01:54:28;;;;;;;675.75;638.42;;;14.70;99.90;;;14.84;100.00;100290.13;5009641;28;20214;-62
2022/06/09 01:57:19;;;;;;;658.40;623.15;;;14.70;99.90;;;14.85;100.00;100289.22;5018435;28;20210;-63
2022/06/09 02:00:08;;;;;;;655.80;620.05;;;14.80;99.90;;;14.82;100.00;100283.94;5004470;28;20209;-63
2022/06/09 02:03:07;;;;;;;627.67;594.78;;;14.80;99.90;;;14.88;100.00;100282.97;5027869;28;20198;-63
2022/06/09 02:05:41;;;;;;;660.33;621.38;;;14.80;99.90;;;14.89;100.00;100274.97;5030326;28;20241;-63
2022/06/09 02:08:16;;;;;;;669.15;631.55;;;14.80;99.90;;;14.93;100.00;100270.50;5040509;28;20201;-63
2022/06/09 02:10:55;;;;;;;655.75;619.72;;;14.80;99.90;;;14.85;100.00;100275.91;5028844;28;20233;-63
2022/06/09 02:13:31;;;;;;;667.20;629.72;;;14.70;99.90;;;14.88;100.00;100272.34;5003289;28;20194;-63
2022/06/09 02:16:05;;;;;;;680.40;640.65;;;14.80;99.90;;;14.84;100.00;100283.91;5015152;28;20206;-62
2022/06/09 02:18:45;;;;;;;644.42;610.15;;;14.80;99.90;;;14.76;100.00;100288.44;5036311;28;20674;-62
2022/06/09 02:21:31;;;;;;;664.50;627.33;;;14.80;99.90;;;14.70;100.00;100292.03;5027262;28;20237;-62
2022/06/09 02:24:00;;;;;;;647.92;613.40;;;14.70;99.90;;;14.62;100.00;100292.13;5024989;28;20202;-62
2022/06/09 02:26:28;;;;;;;658.75;623.50;;;14.70;99.90;;;14.61;100.00;100302.78;5043454;28;20214;-62
2022/06/09 02:28:57;;;;;;;657.63;621.88;;;14.60;99.90;;;14.57;100.00;100301.03;4991661;28;20198;-62
2022/06/09 02:31:25;;;;;;;646.30;612.00;;;14.60;99.90;;;14.56;100.00;100313.47;4996747;28;20231;-62
2022/06/09 02:33:54;;;;;;;664.13;627.35;;;14.60;99.90;;;14.50;100.00;100309.97;5001642;28;20198;-62
2022/06/09 02:36:23;;;;;;;671.38;634.08;;;14.50;99.90;;;14.48;100.00;100307.34;5015475;28;20198;-62
2022/06/09 02:38:51;;;;;;;663.83;627.10;;;14.50;99.90;;;14.48;100.00;100311.78;5030661;28;20209;-62
2022/06/09 02:41:19;;;;;;;635.13;601.22;;;14.50;99.90;;;14.44;100.00;100296.72;5018205;28;20231;-62
2022/06/09 02:43:47;;;;;;;644.83;610.40;;;14.50;99.90;;;14.34;100.00;100295.91;5006181;28;20211;-62
2022/06/09 02:46:15;;;;;;;642.08;608.15;;;14.40;99.90;;;14.31;100.00;100277.31;5036530;28;20219;-62
2022/06/09 02:48:43;;;;;;;645.60;611.10;;;14.40;99.90;;;14.33;100.00;100284.38;5011434;28;20202;-62
2022/06/09 02:51:27;;;;;;;645.00;610.90;;;14.40;99.90;;;14.32;100.00;100285.28;5011272;28;20238;-62
2022/06/09 02:53:59;;;;;;;621.88;588.80;;;14.40;99.90;;;14.27;100.00;100278.19;5005907;28;20693;-62
2022/06/09 02:56:27;;;;;;;637.38;602.90;;;14.30;99.90;;;14.16;100.00;100280.06;5021771;28;20601;-62
2022/06/09 02:58:56;;;;;;;623.55;590.70;;;14.30;99.90;;;14.21;100.00;100288.88;5040201;28;20202;-62
2022/06/09 03:01:27;;;;;;;619.72;586.72;;;14.20;99.90;;;14.18;100.00;100292.44;5014597;28;20234;-62
2022/06/09 03:03:55;;;;;;;633.40;599.08;;;14.20;99.90;;;14.17;100.00;100301.31;5037013;28;20218;-62
2022/06/09 03:06:23;;;;;;;635.95;601.25;;;14.20;99.90;;;14.17;100.00;100314.63;4999336;28;20208;-62
2022/06/09 03:08:51;;;;;;;636.22;602.03;;;14.20;99.90;;;14.19;100.00;100307.50;5012263;28;20198;-62
2022/06/09 03:11:19;;;;;;;634.28;599.60;;;14.20;99.90;;;14.22;100.00;100322.56;5015654;28;20235;-62
2022/06/09 03:13:47;;;;;;;620.42;585.97;;;14.20;99.90;;;14.21;100.00;100326.13;5041685;28;20202;-62
2022/06/09 03:16:16;;;;;;;629.67;594.88;;;14.20;99.90;;;14.27;100.00;100334.06;5035202;28;20201;-62
2022/06/09 03:18:45;;;;;;;630.22;595.20;;;14.20;99.90;;;14.28;100.00;100334.03;5004315;28;20222;-62
2022/06/09 03:21:14;;;;;;;624.72;589.95;;;14.20;99.90;;;14.25;100.00;100339.38;5036068;28;20229;-62
2022/06/09 03:23:42;;;;;;;641.67;602.95;;;14.20;99.90;;;14.22;100.00;100331.44;5005414;28;20209;-62
2022/06/09 03:26:11;;;;;;;628.10;593.28;;;14.20;99.90;;;14.21;100.00;100334.09;5038224;28;20216;-62
2022/06/09 03:28:40;;;;;;;628.63;593.05;;;14.10;99.90;;;14.23;100.00;100335.84;5012892;28;20214;-62
2022/06/09 03:31:08;;;;;;;614.60;580.97;;;14.10;99.90;;;14.19;100.00;100331.44;5019639;28;20731;-62
2022/06/09 03:33:37;;;;;;;615.10;581.90;;;14.10;99.90;;;14.17;100.00;100335.91;5021687;28;20207;-62
2022/06/09 03:36:06;;;;;;;627.70;592.63;;;14.10;99.90;;;14.17;100.00;100333.25;5022080;28;20194;-62
2022/06/09 03:38:34;;;;;;;636.22;599.80;;;14.10;99.90;;;14.17;100.00;100343.88;5029168;28;20213;-62
2022/06/09 03:41:02;;;;;;;639.83;601.28;;;14.10;99.90;;;14.16;100.00;100344.75;5009358;28;20230;-62
2022/06/09 03:43:30;;;;;;;641.92;603.90;;;14.10;99.90;;;14.16;100.00;100344.75;4994760;28;20202;-62
2022/06/09 03:45:58;;;;;;;638.55;600.92;;;14.10;99.90;;;14.16;100.00;100349.22;5021940;28;20209;-62
2022/06/09 03:48:27;;;;;;;619.55;585.28;;;14.10;99.90;;;14.19;100.00;100360.69;5021005;28;20198;-62
2022/06/09 03:50:55;;;;;;;617.15;583.05;;;14.00;99.90;;;14.19;100.00;100359.81;5006110;28;20241;-62
2022/06/09 03:53:23;;;;;;;620.33;585.88;;;14.10;99.90;;;14.21;100.00;100358.03;5018159;28;20248;-62
2022/06/09 03:55:51;;;;;;;629.53;594.42;;;14.10;99.90;;;14.20;100.00;100354.50;5022056;28;20194;-62
2022/06/09 03:58:19;;;;;;;622.13;588.10;;;14.10;99.90;;;14.18;100.00;100355.41;5006522;28;20213;-62
2022/06/09 04:00:47;;;;;;;635.47;599.05;;;14.10;99.90;;;14.18;100.00;100361.59;5010012;28;20227;-62
2022/06/09 04:03:15;;;;;;;619.25;584.58;;;14.10;99.90;;;14.19;100.00;100370.47;5022844;28;20198;-62
2022/06/09 04:05:43;;;;;;;611.60;578.40;;;14.10;99.90;;;14.18;100.00;100366.03;5011610;28;20221;-62
2022/06/09 04:08:12;;;;;;;613.90;581.10;;;14.10;99.90;;;14.19;100.00;100368.69;5035505;28;20575;-62
2022/06/09 04:10:40;;;;;;;621.80;587.63;;;14.10;99.90;;;14.20;100.00;100364.25;5017992;28;20233;-62
2022/06/09 04:13:08;;;;;;;623.95;589.25;;;14.10;99.90;;;14.16;100.00;100354.53;5003356;28;20224;-62
2022/06/09 04:15:37;;;;;;;616.95;581.85;;;14.10;99.90;;;14.15;100.00;100347.44;5018142;28;20230;-62
2022/06/09 04:18:05;;;;;;;627.78;592.65;;;14.10;99.90;;;14.13;100.00;100357.19;4988205;28;20217;-62
2022/06/09 04:20:33;;;;;;;618.97;584.72;;;14.10;99.90;;;14.07;100.00;100360.78;5015151;28;20245;-62
2022/06/09 04:23:01;;;;;;;626.35;591.30;;;14.00;99.90;;;14.11;100.00;100357.22;5036932;28;20201;-62
2022/06/09 04:25:30;;;;;;;605.10;572.13;;;14.00;99.90;;;14.09;100.00;100362.53;5014516;28;20202;-62
2022/06/09 04:27:58;;;;;;;607.88;575.60;;;14.00;99.90;;;14.08;100.00;100358.13;5025981;28;20217;-62
2022/06/09 04:30:26;;;;;;;612.58;579.03;;;14.00;99.90;;;14.13;100.00;100367.84;5014546;28;20209;-62
2022/06/09 04:32:54;;;;;;;619.35;584.65;;;14.00;99.90;;;14.18;100.00;100368.69;5000997;28;20589;-62
2022/06/09 04:35:24;;;;;;;594.60;560.05;;;14.00;99.90;;;14.18;100.00;100366.03;5007335;28;20198;-62
2022/06/09 04:38:00;;;;;;;628.45;588.55;;;14.10;99.90;;;14.23;100.00;100359.78;5032954;28;20212;-62
2022/06/09 04:40:36;;;;;;;621.47;587.03;;;14.10;99.90;;;14.36;100.00;100372.13;5006075;28;20224;-62
2022/06/09 04:43:10;;;;;;;607.25;573.67;;;14.20;99.90;;;14.45;100.00;100365.00;5033132;28;20203;-62
2022/06/09 04:45:41;;;;;;;628.95;593.22;;;14.20;99.90;;;14.52;100.00;100366.72;5027402;28;20700;-62
2022/06/09 04:48:10;;;;;;;616.83;582.08;;;14.30;99.90;;;14.60;100.00;100376.41;5047695;28;20723;-62
2022/06/09 04:50:40;;;;;;;626.33;591.72;;;14.30;99.90;;;14.70;100.00;100377.22;5024319;28;20229;-62
2022/06/09 04:53:09;;;;;;;625.45;590.97;;;14.40;99.90;;;14.70;100.00;100378.09;5027974;28;20229;-62
2022/06/09 04:55:40;;;;;;;645.13;607.33;;;14.50;99.90;;;14.77;100.00;100381.59;5027137;28;20202;-62
2022/06/09 04:58:07;;;;;;;628.13;593.80;;;14.60;99.90;;;14.84;100.00;100375.31;5043817;28;20209;-62
2022/06/09 05:00:35;;;;;;;623.75;590.15;;;14.60;99.90;;;14.92;100.00;100384.13;5046289;28;20225;-62
2022/06/09 05:03:04;;;;;;;636.05;601.50;;;14.70;99.90;;;14.86;100.00;100376.19;5056378;28;20202;-62
2022/06/09 05:05:34;;;;;;;621.13;587.35;;;14.70;99.90;;;14.92;100.00;100392.09;5018262;28;20225;-63
2022/06/09 05:08:03;;;;;;;636.83;602.20;;;14.70;99.90;;;14.90;100.00;100388.56;5035388;28;20206;-63
2022/06/09 05:10:31;;;;;;;627.08;593.10;;;14.80;99.90;;;14.99;100.00;100393.81;5039117;28;20230;-63
2022/06/09 05:13:01;;;;;;;649.80;614.45;;;14.80;99.90;;;14.99;100.00;100383.16;5015726;28;20226;-63
2022/06/09 05:15:29;;;;;;;650.83;614.13;;;14.80;99.90;;;15.02;100.00;100390.25;5037573;28;20202;-62
2022/06/09 05:17:58;;;;;;;648.15;613.38;;;14.90;99.90;;;15.03;100.00;100395.53;5026082;28;20198;-63
2022/06/09 05:20:27;;;;;;;658.53;621.58;;;14.80;99.90;;;14.97;100.00;100390.28;5034538;28;20195;-63
2022/06/09 05:22:55;;;;;;;647.97;613.53;;;14.90;99.90;;;15.08;100.00;100406.16;5011723;28;20204;-63
2022/06/09 05:25:24;;;;;;;650.80;616.28;;;14.90;99.90;;;15.03;100.00;100395.53;5056508;28;20220;-63
2022/06/09 05:27:52;;;;;;;658.58;622.47;;;15.00;99.90;;;15.09;100.00;100410.59;5021850;28;20202;-63
2022/06/09 05:30:23;;;;;;;658.53;622.20;;;15.00;99.90;;;14.97;100.00;100395.59;5047054;28;20216;-63
2022/06/09 05:32:52;;;;;;;652.05;616.35;;;14.90;99.90;;;14.96;100.00;100400.94;5010665;28;20218;-62
2022/06/09 05:35:22;;;;;;;638.08;605.17;;;14.90;99.90;;;14.93;100.00;100401.84;5031010;28;20202;-63
2022/06/09 05:46:10;;;;;;;655.03;618.72;;;14.90;99.90;;;15.20;100.00;100430.00;5030315;28;20202;-63
2022/06/09 05:48:38;;;;;;;660.78;624.47;;;14.90;99.90;;;15.18;100.00;100413.16;5051167;28;20211;-62
2022/06/09 05:51:06;;;;;;;677.10;638.05;;;15.00;99.90;;;15.29;100.00;100413.03;5027255;28;20218;-62
2022/06/09 05:53:35;;;;;;;668.50;631.70;;;15.10;99.90;;;15.32;100.00;100416.56;5032635;28;20223;-62
2022/06/09 05:56:07;;;;;;;669.88;633.25;;;15.10;99.90;;;15.45;100.00;100441.28;5036837;28;20198;-63
2022/06/09 05:58:36;;;;;;;670.72;633.15;;;15.20;99.90;;;15.46;100.00;100412.88;5017843;28;20291;-63
2022/06/09 06:01:07;;;;;;;663.60;628.13;;;15.30;99.90;;;15.59;100.00;100422.50;5007108;28;20245;-62
2022/06/09 06:03:37;;;;;;;680.42;642.83;;;15.30;99.90;;;15.55;100.00;100392.31;5004909;28;20206;-62
2022/06/09 06:08:51;;;;;;;676.60;639.92;;;15.50;99.90;;;15.82;100.00;100433.81;5053755;28;20217;-62
2022/06/09 06:11:20;;;;;;;662.63;627.92;;;15.60;99.90;;;15.93;100.00;100429.22;5011835;28;20242;-62
2022/06/09 06:13:48;;;;;;;680.33;644.38;;;15.70;99.90;;;16.09;100.00;100440.59;4987076;28;20671;-62
2022/06/09 06:16:17;;;;;;;677.65;641.42;;;15.80;99.90;;;16.16;100.00;100428.03;5017108;28;20202;-62
2022/06/09 06:19:05;;;;;;;688.50;651.58;;;15.90;99.90;;;16.37;100.00;100459.75;5017627;28;20208;-63
2022/06/09 06:21:35;;;;;;;699.05;661.72;;;16.00;99.90;;;16.15;100.00;100424.50;5015348;28;20227;-62
2022/06/09 06:24:04;;;;;;;696.35;659.08;;;16.10;99.90;;;16.15;100.00;100420.94;5032010;28;20201;-62
2022/06/09 06:26:33;;;;;;;719.53;679.00;;;16.10;99.90;;;15.99;100.00;100404.25;5021634;28;20206;-62
2022/06/09 06:29:04;;;;;;;737.20;695.53;;;16.00;99.90;;;15.88;100.00;100384.84;5008864;28;20208;-62
2022/06/09 06:31:32;;;;;;;699.13;662.15;;;16.00;99.90;;;15.59;100.00;100356.75;5017688;28;20717;-62
2022/06/09 06:34:00;;;;;;;700.65;663.70;;;15.90;99.90;;;15.44;100.00;100351.59;5026130;28;20223;-63
2022/06/09 06:36:29;;;;;;;693.65;657.50;;;15.70;99.90;;;15.45;100.00;100357.78;5039306;28;20207;-63
2022/06/09 06:38:58;;;;;;;699.13;662.85;;;15.60;99.90;;;15.37;100.00;100361.44;4997301;28;20202;-63
2022/06/09 06:41:26;;;;;;;694.92;658.15;;;15.50;99.90;;;15.30;100.00;100354.41;5028331;28;20222;-62
2022/06/09 06:43:54;;;;;;;683.25;647.92;;;15.50;99.90;;;15.28;100.00;100366.00;5033330;28;20210;-63
2022/06/09 06:46:22;;;;;;;690.80;655.05;;;15.50;99.90;;;15.40;100.00;100404.94;5009408;28;20214;-62
2022/06/09 06:48:53;;;;;;;679.33;644.80;;;15.50;99.90;;;15.38;100.00;100421.81;5014624;28;20213;-62
2022/06/09 06:51:22;;;;;;;688.58;652.63;;;15.50;99.90;;;15.28;100.00;100408.63;5036329;28;20234;-63
2022/06/09 06:53:50;;;;;;;694.33;657.38;;;15.50;99.90;;;15.00;100.00;100373.38;5013095;28;20218;-62
2022/06/09 06:56:19;;;;;;;697.15;659.67;;;15.40;99.90;;;15.27;100.00;100418.38;5018306;28;20209;-62
2022/06/09 06:58:46;;;;;;;699.05;661.60;;;15.30;99.90;;;15.25;100.00;100398.00;5012176;28;20210;-62
2022/06/09 07:01:15;;;;;;;683.40;647.55;;;15.30;99.90;;;15.35;100.00;100426.31;5016400;28;20226;-62
2022/06/09 07:03:43;;;;;;;672.60;637.05;;;15.40;99.90;;;15.41;100.00;100436.91;5023703;28;20209;-62
2022/06/09 07:06:11;;;;;;;684.72;648.80;;;15.50;99.90;;;15.45;100.00;100429.75;5015991;28;20688;-62
2022/06/09 07:08:39;;;;;;;708.92;670.55;;;15.50;99.90;;;15.35;100.00;100412.97;5032819;28;20207;-62
2022/06/09 07:11:08;;;;;;;700.08;663.20;;;15.50;99.90;;;15.51;100.00;100435.91;5025271;28;20265;-63
2022/06/09 07:13:36;;;;;;;706.92;668.95;;;15.50;99.90;;;15.89;100.00;100488.84;5037592;28;20296;-63
2022/06/09 07:16:07;;;;;;;698.33;660.75;;;15.70;99.90;;;16.17;100.00;100480.50;5025406;28;20213;-63
2022/06/09 07:18:50;;;;;;;728.45;688.10;;;16.00;99.90;;;15.85;100.00;100425.78;5042502;28;20210;-62
2022/06/09 07:21:18;;;;;;;734.22;693.10;;;16.00;99.90;;;15.96;100.00;100450.53;5042585;28;20229;-63
2022/06/09 07:23:46;;;;;;;696.53;660.45;;;16.10;99.90;;;16.12;100.00;100472.56;5012374;28;20202;-63
2022/06/09 07:26:14;;;;;;;689.92;653.95;;;16.20;99.90;;;16.00;100.00;100446.03;5032367;28;20218;-62
2022/06/09 07:28:42;;;;;;;722.65;684.70;;;16.20;99.90;;;15.52;100.00;100403.00;5031728;28;20220;-63
2022/06/09 07:31:10;;;;;;;713.72;675.80;;;16.00;99.90;;;15.68;100.00;100434.00;5032912;28;20249;-62
2022/06/09 07:33:41;;;;;;;691.10;655.53;;;15.90;99.90;;;15.76;100.00;100438.34;5015932;28;20219;-63
2022/06/09 07:36:17;;;;;;;718.38;680.10;;;15.90;99.90;;;15.75;100.00;100441.91;5044522;28;20202;-62
2022/06/09 07:38:45;;;;;;;714.50;676.63;;;15.90;99.90;;;16.06;100.00;100483.31;5015371;28;20276;-62
2022/06/09 07:41:13;;;;;;;728.45;690.47;;;16.10;99.90;;;16.11;100.00;100464.56;5019412;28;20257;-62
2022/06/09 07:44:03;;;;;;;739.33;699.20;;;16.20;99.90;;;15.95;100.00;100451.44;5031923;28;20214;-62
2022/06/09 07:46:32;;;;;;;760.97;719.10;;;16.20;99.90;;;16.07;100.00;100474.41;5027151;28;20218;-63
2022/06/09 07:49:01;;;;;;;713.78;677.00;;;16.20;99.90;;;16.20;100.00;100500.03;5034036;28;20662;-62
2022/06/09 07:51:30;;;;;;;714.40;677.90;;;16.40;99.90;;;16.16;100.00;100479.63;5026471;28;20221;-62
2022/06/09 07:53:59;;;;;;;704.80;669.20;;;16.40;99.90;;;16.39;100.00;100518.47;5029606;28;20215;-62
2022/06/09 07:56:28;;;;;;;700.15;665.20;;;16.50;99.90;;;16.39;100.00;100515.78;5034593;28;20206;-63
2022/06/09 07:58:56;;;;;;;733.88;696.30;;;16.70;99.90;;;16.29;100.00;100477.66;5016030;28;20195;-62
2022/06/09 08:01:24;;;;;;;722.97;686.75;;;16.70;99.90;;;16.29;100.00;100478.56;5037959;28;20236;-62
2022/06/09 08:03:53;;;;;;;731.28;694.92;;;16.70;99.90;;;16.12;100.00;100448.53;5025680;28;20225;-63
2022/06/09 08:06:22;;;;;;;743.97;706.17;;;16.70;99.90;;;16.25;100.00;100462.59;5035361;28;20210;-62
2022/06/09 08:08:55;;;;;;;745.40;707.08;;;16.70;99.90;;;16.15;100.00;100440.50;5041338;28;20201;-62
2022/06/09 08:11:37;;;;;;;724.35;687.80;;;16.70;99.90;;;16.38;100.00;100479.31;5002218;28;20237;-62
2022/06/09 08:14:08;;;;;;;733.42;695.25;;;16.70;99.90;;;16.79;100.00;100509.00;5004831;28;20685;-63
2022/06/09 08:16:36;;;;;;;782.40;741.33;;;16.90;99.90;;;16.53;100.00;100447.06;5004078;28;20206;-62
2022/06/09 08:19:06;;;;;;;756.88;718.67;;;17.10;99.90;;;16.61;100.00;100467.41;5025688;28;20213;-62
2022/06/09 08:21:41;;;;;;;787.45;745.58;;;17.10;99.90;;;16.88;100.00;100505.31;5009437;28;20600;-62
2022/06/09 08:24:23;;;;;;;793.45;751.65;;;17.10;99.90;;;17.31;100.00;100542.06;5030907;28;20211;-63
2022/06/09 08:26:51;;;;;;;758.60;719.80;;;17.30;99.90;;;17.46;100.00;100517.72;4990450;28;20221;-63
2022/06/09 08:29:25;;;;;;;752.60;714.67;;;17.50;99.90;;;18.21;100.00;100528.81;5046500;28;20205;-62
2022/06/09 08:31:54;;;;;;;835.95;791.28;;;18.00;99.90;;;17.79;100.00;100436.00;5025066;28;20226;-62
2022/06/09 08:34:24;;;;;;;844.05;798.85;;;18.10;99.90;;;17.67;100.00;100415.75;5030433;28;20279;-63
2022/06/09 08:36:52;;;;;;;829.50;785.40;;;18.20;99.90;;;17.77;100.00;100424.47;5027054;28;20194;-63
2022/06/09 08:39:21;;;;;;;842.65;797.70;;;18.20;99.90;;;18.37;100.00;100528.50;5021163;28;20217;-63
2022/06/09 08:42:13;;;;;;;842.17;797.17;;;18.40;99.90;;;18.13;98.42;100404.94;5012859;28;20229;-63
2022/06/09 08:45:08;;;;;;;790.00;749.13;;;18.50;99.90;;;18.21;99.22;100437.81;5043701;28;20210;-62
2022/06/09 08:47:41;;;;;;;760.10;721.90;;;18.50;99.90;;;18.28;100.00;100443.91;5062869;28;20206;-63
2022/06/09 08:50:26;;;;;;;797.13;756.17;;;18.70;99.90;;;17.96;100.00;100414.25;5027305;28;20556;-63
2022/06/09 08:53:19;;;;;;;785.17;745.50;;;18.70;99.90;;;17.94;100.00;100440.16;5022980;28;20206;-63
2022/06/09 08:55:54;;;;;;;783.42;742.75;;;18.70;99.90;;;17.85;100.00;100423.38;5019223;28;20206;-63
2022/06/09 08:58:52;;;;;;;842.28;798.20;;;18.60;99.90;;;18.57;100.00;100482.53;5029965;28;20213;-63
2022/06/09 09:01:48;;;;;;;784.20;744.22;;;19.00;99.90;;;18.78;96.54;100407.03;5040222;28;20222;-63
2022/06/09 09:04:30;;;;;;;787.72;747.28;;;19.30;99.90;;;18.86;99.29;100435.41;5026444;28;20224;-62
2022/06/09 09:07:12;;;;;;;780.20;740.03;;;19.40;99.90;;;18.34;95.74;100338.47;5028527;28;20571;-62
2022/06/09 09:09:41;;;;;;;758.50;719.28;;;19.20;99.90;;;18.04;95.73;100306.13;5014610;28;20209;-63
2022/06/09 09:12:18;;;;;;;816.90;773.58;;;19.10;99.90;;;18.11;97.64;100345.22;5019807;28;20745;-62
2022/06/09 09:14:52;;;;;;;749.55;710.58;;;19.00;99.90;;;18.12;98.26;100346.97;5043371;28;20209;-63
2022/06/09 09:17:54;;;;;;;747.55;709.58;;;18.90;99.90;;;18.26;97.80;100364.53;5003106;28;20205;-63
2022/06/09 09:20:35;;;;;;;751.42;712.67;;;18.90;99.90;;;18.33;95.30;100337.59;5031303;28;20595;-63
2022/06/09 09:23:13;;;;;;;709.33;672.22;;;18.90;99.90;;;18.45;94.70;100344.44;5007347;28;20198;-63
2022/06/09 09:26:32;;;;;;;747.92;709.30;;;19.10;99.90;;;18.66;94.90;100356.44;5022603;28;20209;-63
2022/06/09 09:29:09;;;;;;;761.90;722.83;;;19.30;99.90;;;18.40;93.85;100298.16;5047665;28;20213;-63
2022/06/09 09:32:01;;;;;;;717.92;681.95;;;19.20;99.90;;;18.45;92.83;100298.91;5023963;28;20232;-63
2022/06/09 09:34:37;;;;;;;706.40;669.97;;;19.20;99.90;;;18.70;92.31;100320.63;5020340;28;20228;-63
2022/06/09 09:37:16;;;;;;;710.35;673.88;;;19.30;99.90;;;18.80;94.43;100355.19;5035295;28;20221;-63
2022/06/09 09:39:59;;;;;;;742.45;704.53;;;19.40;99.90;;;18.35;92.44;100262.59;5048603;28;20205;-63
2022/06/09 09:42:33;;;;;;;706.78;669.95;;;19.40;99.90;;;18.44;95.01;100306.06;5011147;28;20233;-63
2022/06/09 09:45:10;;;;;;;734.58;697.15;;;19.20;99.90;;;18.53;93.79;100300.47;5014791;28;20218;-62
2022/06/09 09:47:51;;;;;;;725.75;689.20;;;19.30;99.90;;;18.67;95.02;100334.97;5008827;28;20210;-64
2022/06/09 09:50:26;;;;;;;819.65;777.13;;;19.40;99.90;;;18.40;95.98;100293.69;5024696;28;20211;-63
2022/06/09 09:53:01;;;;;;;702.47;666.10;;;19.40;99.90;;;18.53;95.99;100324.59;5030136;28;20197;-63
2022/06/09 09:55:35;;;;;;;683.70;649.65;;;19.40;99.90;;;18.58;93.68;100297.69;5028848;28;20214;-63
2022/06/09 09:58:24;;;;;;;732.72;694.80;;;19.30;99.90;;;19.07;93.07;100353.56;5034346;28;20205;-63
2022/06/09 10:01:28;;;;;;;750.95;711.90;;;19.50;99.90;;;18.69;93.45;100292.09;5017919;28;20249;-64
2022/06/09 10:10:31;;;;;;;705.80;669.55;;;19.60;99.90;;;19.45;89.94;100322.13;5019201;28;20225;-63
2022/06/09 10:13:17;;;;;;;700.60;665.25;;;19.90;99.90;;;19.03;91.11;100265.25;5029711;28;20554;-63
2022/06/09 10:16:04;;;;;;;757.60;718.83;;;19.70;99.90;;;19.61;90.00;100338.72;5033581;28;20210;-63
2022/06/09 10:18:55;;;;;;;785.92;745.60;;;19.80;99.90;;;19.82;90.80;100335.38;4960379;28;20219;-63
2022/06/09 10:22:18;;;;;;;710.65;674.58;;;20.20;99.90;;;19.26;88.70;100224.38;4943754;28;20232;-63
2022/06/09 10:25:16;;;;;;;765.45;727.03;;;20.20;99.90;;;20.12;89.41;100350.53;4968094;28;20578;-64
2022/06/09 10:27:57;;;;;;;712.65;676.65;;;20.30;99.90;;;20.10;86.48;100293.31;4984192;28;20220;-63